Time;durP1;ratioP1;P1;durP2;ratioP2;P2;SDS_P1;SDS_P2;PMS_P1;PMS_P2;Temp;Humidity;BMP_temperature;BMP_pressure;BME280_temperature;BME280_humidity;BME280_pressure;Samples;Min_cycle;Max_cycle;Signal;HPM_P1;HPM_P2
2022/12/17 13:06:11;;;;;;;82.15;38.58;;;;;;;-1.04;97.75;102611.53;4997128;28;20567;-82
2022/12/17 13:08:37;;;;;;;85.03;37.22;;;;;;;-0.88;98.58;102647.25;5011308;28;20034;-82
2022/12/17 13:11:25;;;;;;;84.85;37.08;;;;;;;-0.87;98.59;102646.44;5014075;28;20030;-83
2022/12/17 13:13:56;;;;;;;80.10;36.30;;;;;;;-0.94;98.35;102646.31;5014454;28;20172;-85
2022/12/17 13:16:30;;;;;;;81.57;36.33;;;;;;;-0.87;98.11;102651.50;5014496;28;20033;-79
2022/12/17 13:19:30;;;;;;;79.78;35.58;;;;;;;-0.90;98.23;102648.06;5008538;28;20046;-79
2022/12/17 13:22:08;;;;;;;85.82;38.45;;;;;;;-0.98;98.06;102649.66;5014736;28;20477;-83
2022/12/17 13:24:33;;;;;;;80.15;36.53;;;;;;;-1.17;98.12;102631.66;4998088;28;20030;-82
2022/12/17 13:26:59;;;;;;;86.93;37.25;;;;;;;-1.20;98.79;102615.53;5013994;28;20092;-82
2022/12/17 13:29:32;;;;;;;78.18;34.80;;;;;;;-1.07;98.37;102636.84;5014105;28;20493;-80
2022/12/17 13:32:00;;;;;;;84.55;37.60;;;;;;;-1.11;98.90;102632.53;5014128;28;20456;-82
2022/12/17 13:34:48;;;;;;;86.82;38.78;;;;;;;-1.10;99.22;102632.56;5014096;28;20037;-82
2022/12/17 13:37:52;;;;;;;83.57;37.97;;;;;;;-1.47;99.03;102573.78;5013813;28;20088;-79
2022/12/17 13:40:43;;;;;;;78.63;36.40;;;;;;;-1.18;99.49;102637.56;4995623;28;20057;-81
2022/12/17 13:43:21;;;;;;;83.28;36.60;;;;;;;-1.21;99.70;102634.94;5014245;28;20045;-82
2022/12/17 13:45:49;;;;;;;78.50;36.47;;;;;;;-1.29;99.67;102626.38;5013715;28;20045;-82
2022/12/17 13:48:23;;;;;;;85.85;38.63;;;;;;;-1.23;99.52;102635.75;5013986;28;20038;-76
2022/12/17 13:51:00;;;;;;;83.47;38.08;;;;;;;-1.39;99.96;102611.88;4994359;28;20058;-83
2022/12/17 13:53:28;;;;;;;79.20;36.28;;;;;;;-1.42;99.58;102611.81;4994288;28;20422;-81
2022/12/17 13:55:55;;;;;;;83.90;37.10;;;;;;;-1.33;99.50;102637.31;4994266;28;20105;-82
2022/12/17 13:58:32;;;;;;;81.10;34.97;;;;;;;-1.46;99.70;102623.59;4994223;28;20034;-82
2022/12/17 14:01:14;;;;;;;84.20;35.60;;;;;;;-1.44;100.00;102638.81;4994020;28;20034;-83
2022/12/17 14:03:42;;;;;;;86.07;37.55;;;;;;;-1.75;100.00;102597.81;4994157;28;20027;-80
2022/12/17 14:06:10;;;;;;;78.40;36.40;;;;;;;-1.56;100.00;102634.44;4994196;28;20026;-83
2022/12/17 14:08:36;;;;;;;85.00;35.30;;;;;;;-1.66;100.00;102619.91;4994184;28;20413;-81
2022/12/17 14:13:47;;;;;;;86.75;37.55;;;;;;;-1.77;100.00;102593.53;5006749;28;20562;-79
2022/12/17 14:16:20;;;;;;;89.47;39.85;;;;;;;-1.65;100.00;102618.22;5035224;28;20021;-77
2022/12/17 14:18:50;;;;;;;88.68;38.42;;;;;;;-1.50;100.00;102643.78;5034043;28;20172;-78
2022/12/17 14:21:17;;;;;;;79.78;34.80;;;;;;;-1.68;100.00;102625.75;5034791;28;20034;-78
2022/12/17 14:23:44;;;;;;;82.95;35.10;;;;;;;-1.67;100.00;102645.19;5035139;28;20112;-79
2022/12/17 14:26:11;;;;;;;89.55;37.55;;;;;;;-1.66;100.00;102652.84;5035264;28;20022;-76
2022/12/17 14:28:51;;;;;;;87.07;37.03;;;;;;;-1.73;100.00;102653.56;5035308;28;20060;-78
2022/12/17 14:31:28;;;;;;;89.50;37.05;;;;;;;-1.67;100.00;102655.31;5034969;28;20041;-80
2022/12/17 14:34:06;;;;;;;92.43;37.50;;;;;;;-1.67;100.00;102645.19;5035166;28;20540;-79
2022/12/17 14:36:34;;;;;;;89.13;38.33;;;;;;;-1.64;100.00;102656.25;5034935;28;20030;-73
2022/12/17 14:39:03;;;;;;;93.45;38.70;;;;;;;-1.60;100.00;102649.53;5034968;28;20022;-76
2022/12/17 14:44:26;;;;;;;105.70;42.65;;;;;;;-1.73;100.00;102621.47;5035286;28;20045;-74
2022/12/17 14:46:53;;;;;;;;;;;;;;;-1.45;100.00;102650.66;5035024;28;20021;-75
2022/12/17 14:49:20;;;;;;;101.00;40.13;;;;;;;-1.49;100.00;102659.00;5034830;28;19967;-78
2022/12/17 14:51:47;;;;;;;100.03;40.63;;;;;;;-1.78;100.00;102612.09;5034712;28;20017;-80
2022/12/17 14:54:19;;;;;;;97.10;40.45;;;;;;;-1.62;100.00;102638.53;5034854;28;20436;-83
2022/12/17 14:56:46;;;;;;;95.93;40.03;;;;;;;-1.60;100.00;102660.53;5034942;28;20022;-74
2022/12/17 14:59:34;;;;;;;97.80;39.92;;;;;;;-1.58;100.00;102666.47;5034666;28;20374;-74
2022/12/17 15:02:18;;;;;;;94.35;39.13;;;;;;;-1.67;100.00;102673.94;5034441;28;20029;-84
2022/12/17 15:04:43;;;;;;;98.03;39.22;;;;;;;-1.65;100.00;102679.88;5034491;28;20037;-83
2022/12/17 15:07:13;;;;;;;93.18;39.53;;;;;;;-1.65;100.00;102671.41;5034637;28;20547;-81
2022/12/17 15:09:39;;;;;;;94.22;39.42;;;;;;;-1.73;100.00;102664.53;5034622;28;20112;-79
2022/12/17 15:12:09;;;;;;;97.50;41.00;;;;;;;-1.72;100.00;102675.50;5034376;28;20026;-80
2022/12/17 15:14:34;;;;;;;80.35;34.67;;;;;;;-2.16;100.00;102607.25;5034628;28;20493;-80
2022/12/17 15:17:00;;;;;;;83.43;34.83;;;;;;;-1.83;100.00;102684.59;5034186;28;20068;-79
2022/12/17 15:19:25;;;;;;;78.18;34.28;;;;;;;-1.94;100.00;102674.28;5033150;28;20481;-81
2022/12/17 15:21:51;;;;;;;91.25;36.47;;;;;;;-2.09;100.00;102661.34;5034464;28;20036;-82
2022/12/17 15:24:19;;;;;;;86.35;36.40;;;;;;;-2.09;100.00;102671.47;5034402;28;20726;-83
2022/12/17 15:26:44;;;;;;;85.70;35.30;;;;;;;-1.98;100.00;102702.03;5034300;28;20078;-84
2022/12/17 15:29:10;;;;;;;77.82;34.42;;;;;;;-2.48;100.00;102631.91;5034514;28;20473;-82
2022/12/17 15:31:35;;;;;;;84.20;35.28;;;;;;;-2.11;100.00;102716.16;5043772;28;20029;-79
2022/12/17 15:34:01;;;;;;;84.70;34.40;;;;;;;-2.16;100.00;102723.66;5053493;28;20384;-81
2022/12/17 15:36:26;;;;;;;88.50;35.03;;;;;;;-2.22;100.00;102707.50;5054020;28;20040;-83
2022/12/17 15:38:52;;;;;;;80.65;33.75;;;;;;;-2.22;100.00;102720.16;5054250;28;20070;-81
2022/12/17 15:44:03;;;;;;;85.68;34.90;;;;;;;-2.31;100.00;102718.28;5031481;28;20033;-81
2022/12/17 15:46:28;;;;;;;88.05;33.78;;;;;;;-2.56;100.00;102681.50;5031123;28;20489;-81
2022/12/17 15:48:55;;;;;;;81.50;34.10;;;;;;;-2.39;100.00;102723.16;5031265;28;20033;-81
2022/12/17 15:51:22;;;;;;;83.70;34.20;;;;;;;-2.37;100.00;102723.19;5031620;28;20034;-79
2022/12/17 15:53:48;;;;;;;90.63;35.65;;;;;;;-2.47;100.00;102704.44;5031475;28;20156;-80
2022/12/17 15:56:22;;;;;;;87.13;34.42;;;;;;;-2.37;100.00;102718.13;5031628;28;20401;-80
2022/12/17 15:58:48;;;;;;;84.22;34.80;;;;;;;-2.52;100.00;102703.50;5031521;28;20037;-79
2022/12/17 16:01:14;;;;;;;86.47;34.45;;;;;;;-2.40;100.00;102718.94;5031181;28;20037;-82
2022/12/17 16:03:39;;;;;;;86.93;35.95;;;;;;;-2.40;100.00;102729.06;5031435;28;20022;-83
2022/12/17 16:06:05;;;;;;;85.13;34.67;;;;;;;-2.51;100.00;102722.91;5031637;28;20029;-83
2022/12/17 16:08:30;;;;;;;84.05;36.28;;;;;;;-2.48;100.00;102730.56;5031381;28;20541;-81
2022/12/17 16:10:55;;;;;;;86.55;34.00;;;;;;;-2.53;100.00;102728.78;5031954;28;20361;-88
2022/12/17 16:13:21;;;;;;;85.63;34.63;;;;;;;-2.56;100.00;102737.13;5031579;28;20500;-87
2022/12/17 16:15:54;;;;;;;88.28;34.40;;;;;;;-2.55;100.00;102735.50;5031204;28;20408;-86
2022/12/17 16:18:21;;;;;;;83.63;34.55;;;;;;;-2.68;100.00;102727.59;5031030;28;20030;-83
2022/12/17 16:20:46;;;;;;;90.97;35.00;;;;;;;-2.82;100.00;102703.72;5038898;28;20044;-88
2022/12/17 16:23:12;;;;;;;88.40;36.35;;;;;;;-2.63;100.00;102730.25;5053165;28;20040;-86
2022/12/17 16:25:37;;;;;;;94.55;36.13;;;;;;;-2.76;100.00;102719.00;5052838;28;20039;-85
2022/12/17 16:28:02;;;;;;;94.10;36.70;;;;;;;-2.70;100.00;102728.41;5053041;28;20031;-85
2022/12/17 16:30:28;;;;;;;96.82;37.58;;;;;;;-2.96;100.00;102687.34;5052731;28;20063;-86
2022/12/17 16:32:57;;;;;;;96.28;36.88;;;;;;;-2.70;100.00;102730.94;5052746;28;20025;-85
2022/12/17 16:35:22;;;;;;;93.35;38.30;;;;;;;-2.65;100.00;102732.75;5052966;28;20024;-86
2022/12/17 16:37:48;;;;;;;95.57;36.03;;;;;;;-2.71;100.00;102725.03;5051602;28;20377;-86
2022/12/17 16:40:13;;;;;;;96.90;36.95;;;;;;;-2.59;100.00;102739.59;5052757;28;20021;-83
2022/12/17 16:42:38;;;;;;;91.18;38.15;;;;;;;-2.60;100.00;102731.16;5052949;28;20029;-87
2022/12/17 16:45:05;;;;;;;97.28;36.33;;;;;;;-2.49;100.00;102738.97;5052837;28;20044;-86
2022/12/17 16:47:30;;;;;;;109.13;39.97;;;;;;;-2.56;100.00;102721.94;5052635;28;20032;-85
2022/12/17 16:49:56;;;;;;;103.95;39.03;;;;;;;-2.46;100.00;102736.53;5052903;28;20028;-85
2022/12/17 16:52:21;;;;;;;97.85;38.00;;;;;;;-2.46;100.00;102725.53;5052683;28;20028;-85
2022/12/17 16:54:47;;;;;;;103.50;38.58;;;;;;;-2.47;100.00;102729.75;5052856;28;20116;-86
2022/12/17 16:57:12;;;;;;;102.40;38.53;;;;;;;-2.48;100.00;102739.84;5052567;28;20029;-82
2022/12/17 16:59:38;;;;;;;96.55;36.63;;;;;;;-2.65;100.00;102721.78;5052926;28;20545;-82
2022/12/17 17:02:03;;;;;;;105.30;39.40;;;;;;;-2.56;100.00;102746.41;5052814;28;20025;-81
2022/12/17 17:04:28;;;;;;;96.65;39.38;;;;;;;-2.58;100.00;102740.44;5052760;28;20021;-86
2022/12/17 17:06:55;;;;;;;106.93;38.10;;;;;;;-2.61;100.00;102739.56;5052665;28;20066;-85
2022/12/17 17:09:22;;;;;;;94.70;37.03;;;;;;;-2.57;100.00;102735.44;5052728;28;20487;-85
2022/12/17 17:11:48;;;;;;;94.18;36.20;;;;;;;-2.55;100.00;102740.53;5052328;28;20045;-85
2022/12/17 17:14:14;;;;;;;96.50;35.58;;;;;;;-2.66;100.00;102727.63;5052462;28;20052;-85
2022/12/17 17:16:39;;;;;;;92.75;35.72;;;;;;;-2.79;100.00;102705.44;5052623;28;20021;-83
2022/12/17 17:19:05;;;;;;;90.65;36.03;;;;;;;-2.55;100.00;102738.00;5052365;28;20072;-73
2022/12/17 17:21:35;;;;;;;91.72;35.28;;;;;;;-2.70;100.00;102726.72;5052388;28;20033;-74
2022/12/17 17:24:14;;;;;;;95.43;38.30;;;;;;;-2.75;100.00;102725.78;5052493;28;20017;-80
2022/12/17 17:26:40;;;;;;;90.95;34.97;;;;;;;-2.77;100.00;102727.41;5052549;28;20087;-73
2022/12/17 17:29:06;;;;;;;89.72;35.25;;;;;;;-2.69;100.00;102743.59;5052649;28;20104;-82
2022/12/17 17:31:32;;;;;;;88.25;34.00;;;;;;;-2.70;100.00;102748.63;5052694;28;20029;-76
2022/12/17 17:33:58;;;;;;;89.70;33.85;;;;;;;-2.80;100.00;102746.72;5052310;28;20025;-77
2022/12/17 17:36:29;;;;;;;94.65;37.55;;;;;;;-3.08;100.00;102700.56;5052346;28;20014;-84
2022/12/17 17:38:57;;;;;;;91.95;35.10;;;;;;;-2.83;100.00;102764.34;5052500;28;20426;-85
2022/12/17 17:41:25;;;;;;;84.68;36.05;;;;;;;-2.88;100.00;102769.28;5050607;28;20453;-85
2022/12/17 17:44:13;;;;;;;81.45;33.55;;;;;;;-2.98;100.00;102764.81;5051105;28;20369;-84
2022/12/17 17:46:39;;;;;;;88.05;35.17;;;;;;;-3.00;100.00;102766.47;5052625;28;20564;-76
2022/12/17 17:49:06;;;;;;;88.20;34.92;;;;;;;-2.98;100.00;102768.22;5052089;28;20108;-80
2022/12/17 17:51:36;;;;;;;85.25;35.17;;;;;;;-2.99;100.00;102770.72;5052421;28;20029;-87
2022/12/17 17:54:03;;;;;;;88.20;33.40;;;;;;;-3.09;100.00;102759.53;5052154;28;20526;-74
2022/12/17 17:56:31;;;;;;;89.70;34.53;;;;;;;-3.09;100.00;102762.03;5052755;28;20287;-77
2022/12/17 17:59:02;;;;;;;92.15;34.60;;;;;;;-3.12;100.00;102759.44;5056028;28;20033;-74
2022/12/17 18:01:31;;;;;;;83.10;32.90;;;;;;;-3.15;100.00;102763.56;5055786;28;20115;-77
2022/12/17 18:03:59;;;;;;;85.40;34.80;;;;;;;-3.12;100.00;102761.13;5055596;28;20067;-79
2022/12/17 18:06:25;;;;;;;87.85;35.13;;;;;;;-3.12;100.00;102756.94;5055500;28;20017;-75
2022/12/17 18:08:51;;;;;;;89.35;35.05;;;;;;;-3.27;100.00;102743.91;5055686;28;20380;-77
2022/12/17 18:11:19;;;;;;;96.00;34.65;;;;;;;-3.12;100.00;102766.19;5055613;28;20029;-73
2022/12/17 18:13:53;;;;;;;95.53;37.08;;;;;;;-3.19;100.00;102763.50;5055507;28;20029;-76
2022/12/17 18:16:36;;;;;;;100.40;35.35;;;;;;;-3.32;100.00;102742.94;5054290;28;20135;-79
2022/12/17 18:19:27;;;;;;;88.82;35.15;;;;;;;-3.33;100.00;102742.09;5055090;28;20045;-81
2022/12/17 18:21:53;;;;;;;90.35;33.83;;;;;;;-3.12;100.00;102776.28;5053141;28;20514;-75
2022/12/17 18:24:24;;;;;;;87.18;33.88;;;;;;;-3.19;100.00;102762.63;5055271;28;20100;-74
2022/12/17 18:26:50;;;;;;;91.72;37.10;;;;;;;-3.13;100.00;102775.44;5055439;28;20029;-76
2022/12/17 18:29:18;;;;;;;92.00;35.28;;;;;;;-3.15;100.00;102788.81;5055220;28;20032;-74
2022/12/17 18:31:43;;;;;;;86.82;33.72;;;;;;;-3.14;100.00;102786.38;5055328;28;20028;-72
2022/12/17 18:34:12;;;;;;;82.45;35.03;;;;;;;-3.18;100.00;102775.31;5055058;28;20032;-73
2022/12/17 18:36:41;;;;;;;88.65;34.17;;;;;;;-3.18;100.00;102775.31;5054984;28;20486;-84
2022/12/17 18:39:18;;;;;;;91.07;35.75;;;;;;;-3.22;100.00;102776.06;5055236;28;20029;-75
2022/12/17 18:44:32;;;;;;;85.57;33.17;;;;;;;-3.39;100.00;102762.16;5054963;28;20047;-76
2022/12/17 18:46:57;;;;;;;87.03;35.45;;;;;;;-3.38;100.00;102765.53;5055129;28;20033;-78
2022/12/17 18:49:25;;;;;;;92.63;36.30;;;;;;;-3.37;100.00;102769.75;5054539;28;20025;-87
2022/12/17 18:51:51;;;;;;;91.63;35.10;;;;;;;-3.43;100.00;102746.88;5054892;28;20179;-85
2022/12/17 18:54:23;;;;;;;91.63;36.00;;;;;;;-3.42;100.00;102749.44;5054784;28;20124;-80
2022/12/17 18:56:48;;;;;;;88.07;34.30;;;;;;;-3.33;100.00;102762.31;5052907;28;20060;-85
2022/12/17 18:59:17;;;;;;;80.80;35.30;;;;;;;-3.42;100.00;102753.66;5055028;28;20425;-87
2022/12/17 19:01:43;;;;;;;82.90;33.30;;;;;;;-3.46;100.00;102750.16;5053295;28;20021;-80
2022/12/17 19:04:12;;;;;;;86.05;35.60;;;;;;;-3.32;100.00;102766.53;5054525;28;20448;-86
2022/12/17 19:06:38;;;;;;;74.80;32.83;;;;;;;-3.32;100.00;102770.75;5054741;28;20431;-86
2022/12/17 19:09:05;;;;;;;75.43;32.90;;;;;;;-3.38;100.00;102763.00;5054513;28;20029;-85
2022/12/17 19:11:32;;;;;;;81.13;34.70;;;;;;;-3.46;100.00;102750.16;5054538;28;20025;-84
2022/12/17 19:13:57;;;;;;;87.05;35.15;;;;;;;-3.33;100.00;102776.63;5054281;28;20384;-78
2022/12/17 19:16:25;;;;;;;84.70;36.42;;;;;;;-3.44;100.00;102766.25;5054501;28;20032;-77
2022/12/17 19:18:59;;;;;;;84.80;34.22;;;;;;;-3.43;100.00;102767.09;5052566;28;20026;-78
2022/12/17 19:21:25;;;;;;;82.07;35.30;;;;;;;-3.31;100.00;102798.56;5054281;28;20373;-80
2022/12/17 19:23:56;;;;;;;81.38;33.65;;;;;;;-3.47;100.00;102777.09;5054674;28;20462;-86
2022/12/17 19:26:21;;;;;;;90.75;35.78;;;;;;;-3.33;100.00;102800.19;5052985;28;20098;-87
2022/12/17 19:28:49;;;;;;;83.18;33.40;;;;;;;-3.41;100.00;102805.88;5054172;28;20468;-87
2022/12/17 19:31:16;;;;;;;77.70;32.65;;;;;;;-3.48;100.00;102800.63;5054107;28;20032;-88
2022/12/17 19:33:41;;;;;;;74.78;32.75;;;;;;;-3.51;100.00;102802.25;5053861;28;20020;-85
2022/12/17 19:36:10;;;;;;;90.60;35.15;;;;;;;-3.55;100.00;102801.28;5053941;28;20027;-78
2022/12/17 19:38:36;;;;;;;82.13;35.65;;;;;;;-3.75;100.00;102769.59;5054013;28;20112;-86
2022/12/17 19:41:03;;;;;;;88.18;35.03;;;;;;;-3.78;100.00;102783.00;5054867;28;20092;-87
2022/12/17 19:43:29;;;;;;;87.93;35.95;;;;;;;-3.66;100.00;102814.44;5053822;28;20028;-84
2022/12/17 19:46:03;;;;;;;88.60;35.85;;;;;;;-3.92;100.00;102760.75;5053552;28;20096;-87
2022/12/17 19:48:30;;;;;;;86.13;36.83;;;;;;;-3.79;100.00;102778.78;5052488;28;20020;-86
2022/12/17 19:50:56;;;;;;;89.70;36.08;;;;;;;-3.57;100.00;102807.97;5053562;28;20063;-87
2022/12/17 19:53:25;;;;;;;79.35;34.38;;;;;;;-3.72;100.00;102773.91;5053362;28;20358;-87
2022/12/17 19:55:51;;;;;;;82.60;33.03;;;;;;;-3.58;100.00;102792.78;5053819;28;20027;-87
2022/12/17 19:58:17;;;;;;;84.38;33.47;;;;;;;-3.56;100.00;102809.69;5053725;28;20071;-86
2022/12/17 20:00:42;;;;;;;72.22;31.05;;;;;;;-3.73;100.00;102792.38;5053501;28;20025;-87
2022/12/17 20:03:08;;;;;;;74.47;31.63;;;;;;;-3.66;100.00;102822.00;5053779;28;20029;-85
2022/12/17 20:05:33;;;;;;;78.63;31.13;;;;;;;-3.71;100.00;102821.91;5053361;28;20461;-86
2022/12/17 20:07:59;;;;;;;83.20;34.22;;;;;;;-3.93;100.00;102796.84;5053222;28;20029;-87
2022/12/17 20:10:24;;;;;;;78.80;32.67;;;;;;;-3.70;100.00;102823.59;5053340;28;20059;-85
2022/12/17 20:12:50;;;;;;;84.82;34.58;;;;;;;-3.67;100.00;102843.03;5052174;28;20033;-86
2022/12/17 20:15:15;;;;;;;86.32;37.15;;;;;;;-3.76;100.00;102829.31;5053065;28;20051;-82
2022/12/17 20:17:41;;;;;;;78.30;34.28;;;;;;;-3.79;100.00;102828.41;5053353;28;20036;-80
2022/12/17 20:20:07;;;;;;;72.55;30.60;;;;;;;-3.72;100.00;102837.88;5052569;28;20122;-85
2022/12/17 20:22:32;;;;;;;75.82;30.38;;;;;;;-3.72;100.00;102842.91;5053091;28;20029;-86
2022/12/17 20:25:00;;;;;;;70.45;31.90;;;;;;;-4.02;100.00;102799.13;5053093;28;20379;-85
2022/12/17 20:27:25;;;;;;;71.30;31.42;;;;;;;-4.01;100.00;102799.19;5052905;28;20021;-78
2022/12/17 20:29:51;;;;;;;72.35;31.33;;;;;;;-3.83;100.00;102834.19;5053145;28;20036;-85
2022/12/17 20:32:19;;;;;;;71.47;30.73;;;;;;;-3.80;100.00;102835.13;5053157;28;20633;-85
2022/12/17 20:34:44;;;;;;;69.43;31.63;;;;;;;-3.81;100.00;102833.41;5053057;28;20036;-85
2022/12/17 20:37:10;;;;;;;70.18;31.60;;;;;;;-4.09;100.00;102801.47;5052895;28;20020;-81
2022/12/17 20:39:35;;;;;;;74.93;30.38;;;;;;;-4.21;100.00;102780.94;5052828;28;20443;-86
2022/12/17 20:42:01;;;;;;;65.15;29.40;;;;;;;-3.88;100.00;102838.22;5052890;28;20531;-79
2022/12/17 20:44:26;;;;;;;83.82;30.77;;;;;;;-3.92;100.00;102839.81;5052915;28;20032;-78
2022/12/17 20:46:51;;;;;;;68.68;29.02;;;;;;;-4.07;100.00;102814.13;5053070;28;20075;-82
2022/12/17 20:49:17;;;;;;;68.53;29.88;;;;;;;-3.92;100.00;102826.34;5052974;28;20406;-84
2022/12/17 20:51:42;;;;;;;73.82;32.85;;;;;;;-3.91;100.00;102823.88;5052608;28;20435;-82
2022/12/17 20:54:09;;;;;;;77.85;32.17;;;;;;;-4.12;100.00;102782.88;5052748;28;20384;-87
2022/12/17 20:56:35;;;;;;;74.28;31.20;;;;;;;-4.37;100.00;102741.81;5052568;28;20060;-86
2022/12/17 20:59:07;;;;;;;69.35;32.20;;;;;;;-3.96;100.00;102804.34;5052076;28;20029;-87
2022/12/17 21:01:34;;;;;;;68.05;30.20;;;;;;;-3.93;100.00;102809.47;5052860;28;20055;-86
2022/12/17 21:04:01;;;;;;;62.75;28.95;;;;;;;-4.11;100.00;102792.16;5052862;28;20039;-85
2022/12/17 21:06:39;;;;;;;71.10;31.15;;;;;;;-3.98;100.00;102818.59;5051515;28;20033;-86
2022/12/17 21:09:05;;;;;;;63.78;28.80;;;;;;;-4.06;100.00;102810.78;5052846;28;20090;-84
2022/12/17 21:11:32;;;;;;;62.45;27.75;;;;;;;-4.04;100.00;102812.53;5052640;28;20032;-77
2022/12/17 21:14:00;;;;;;;64.85;29.33;;;;;;;-4.07;100.00;102801.50;5052565;28;20067;-83
2022/12/17 21:16:28;;;;;;;65.15;28.33;;;;;;;-4.28;100.00;102775.66;5052714;28;20028;-86
2022/12/17 21:18:55;;;;;;;64.60;29.02;;;;;;;-4.70;100.00;102731.59;5051403;28;20456;-80
2022/12/17 21:21:23;;;;;;;66.90;30.30;;;;;;;-4.31;100.00;102793.25;5052727;28;20036;-83
2022/12/17 21:23:49;;;;;;;66.72;32.40;;;;;;;-4.12;100.00;102833.34;5052002;28;20487;-79
2022/12/17 21:26:21;;;;;;;65.25;31.58;;;;;;;-4.13;100.00;102829.97;5052717;28;20051;-87
2022/12/17 21:28:48;;;;;;;67.10;31.40;;;;;;;-4.45;100.00;102778.53;5052654;28;20021;-86
2022/12/17 21:31:23;;;;;;;81.65;35.85;;;;;;;-4.49;100.00;102776.75;5052468;28;20044;-84
2022/12/17 21:33:50;;;;;;;75.60;33.10;;;;;;;-4.42;100.00;102793.78;5056172;28;20079;-80
2022/12/17 21:36:18;;;;;;;70.53;30.90;;;;;;;-4.18;100.00;102835.66;5056054;28;20020;-76
2022/12/17 21:38:44;;;;;;;75.25;33.03;;;;;;;-4.17;100.00;102845.81;5056072;28;20210;-78
2022/12/17 21:41:13;;;;;;;70.47;31.90;;;;;;;-4.38;100.00;102807.31;5056406;28;20025;-83
2022/12/17 21:43:39;;;;;;;77.68;35.25;;;;;;;-4.19;100.00;102844.06;5056234;28;20025;-85
2022/12/17 21:46:08;;;;;;;79.70;36.35;;;;;;;-4.27;100.00;102836.25;5056136;28;20108;-81
2022/12/17 21:48:37;;;;;;;76.45;33.83;;;;;;;-4.46;100.00;102799.53;5056111;28;20461;-82
2022/12/17 21:51:03;;;;;;;80.32;33.40;;;;;;;-4.43;100.00;102817.25;5055868;28;20033;-84
2022/12/17 21:53:29;;;;;;;82.45;35.92;;;;;;;-4.36;100.00;102824.22;5055502;28;20025;-85
2022/12/17 21:56:06;;;;;;;78.13;34.70;;;;;;;-4.22;100.00;102851.53;5055560;28;20056;-84
2022/12/17 21:58:33;;;;;;;77.82;34.10;;;;;;;-4.30;100.00;102845.41;5055772;28;20028;-80
2022/12/17 22:01:13;;;;;;;82.25;36.83;;;;;;;-4.49;100.00;102816.25;5055686;28;20468;-84
2022/12/17 22:03:39;;;;;;;81.13;36.60;;;;;;;-4.57;100.00;102816.00;5055657;28;20029;-84
2022/12/17 22:06:10;;;;;;;79.80;34.97;;;;;;;-4.37;100.00;102862.00;5055636;28;20102;-78
2022/12/17 22:08:37;;;;;;;81.07;35.97;;;;;;;-4.53;100.00;102837.97;5055871;28;20027;-77
2022/12/17 22:11:07;;;;;;;81.88;35.75;;;;;;;-4.82;100.00;102804.28;5055717;28;20021;-86
2022/12/17 22:16:17;;;;;;;84.47;34.72;;;;;;;-4.56;100.00;102877.34;5055437;28;20432;-82
2022/12/17 22:18:42;;;;;;;78.78;36.03;;;;;;;-4.78;100.00;102851.47;5055391;28;20033;-75
2022/12/17 22:21:08;;;;;;;81.85;34.85;;;;;;;-4.74;100.00;102868.38;5054970;28;20053;-76
2022/12/17 22:23:33;;;;;;;75.82;34.17;;;;;;;-4.75;100.00;102878.41;5055249;28;20040;-73
2022/12/17 22:25:59;;;;;;;80.85;34.97;;;;;;;-4.81;100.00;102879.09;5055458;28;20017;-86
2022/12/17 22:28:24;;;;;;;80.45;34.92;;;;;;;-5.12;100.00;102834.34;5055364;28;20078;-86
2022/12/17 22:33:33;;;;;;;77.13;34.25;;;;;;;-5.03;100.00;102874.97;5055548;28;20511;-73
2022/12/17 22:36:03;;;;;;;77.82;35.65;;;;;;;-5.11;100.00;102878.03;5055196;28;20029;-76
2022/12/17 22:38:28;;;;;;;80.95;35.60;;;;;;;-5.29;100.00;102863.16;5054894;28;20516;-78
2022/12/17 22:40:54;;;;;;;76.85;34.63;;;;;;;-5.26;100.00;102864.13;5055139;28;20075;-85
2022/12/17 22:43:28;;;;;;;80.75;33.65;;;;;;;-5.37;100.00;102867.06;5054602;28;20511;-75
2022/12/17 22:46:01;;;;;;;75.55;34.88;;;;;;;-5.48;100.00;102866.69;5055316;28;20392;-76
2022/12/17 22:48:28;;;;;;;83.07;35.20;;;;;;;-5.62;100.00;102848.56;5055095;28;20021;-84
2022/12/17 22:50:53;;;;;;;79.85;35.22;;;;;;;-5.49;100.00;102880.94;5054941;28;20025;-73
2022/12/17 22:53:19;;;;;;;88.47;35.25;;;;;;;-5.54;100.00;102884.94;5054698;28;20027;-84
2022/12/17 22:55:45;;;;;;;83.13;35.25;;;;;;;-5.60;100.00;102881.38;5055243;28;20353;-86
2022/12/17 22:58:10;;;;;;;87.93;34.35;;;;;;;-5.68;100.00;102878.56;5054745;28;20025;-85
2022/12/17 23:00:35;;;;;;;85.70;35.05;;;;;;;-5.79;100.00;102862.22;5054638;28;20033;-86
2022/12/17 23:03:02;;;;;;;89.30;36.08;;;;;;;-5.82;100.00;102867.13;5054845;28;20025;-86
2022/12/17 23:05:28;;;;;;;79.45;35.75;;;;;;;-5.91;100.00;102862.63;5054616;28;20530;-85
2022/12/17 23:07:54;;;;;;;84.18;34.65;;;;;;;-5.99;100.00;102853.97;5054358;28;20017;-86
2022/12/17 23:10:20;;;;;;;92.18;38.03;;;;;;;-5.99;100.00;102864.03;5054310;28;20029;-86
2022/12/17 23:12:51;;;;;;;82.63;37.38;;;;;;;-6.05;100.00;102866.31;5054440;28;20165;-86
2022/12/17 23:15:17;;;;;;;;;;;;;;;-6.05;100.00;102860.41;5054786;28;20037;-86
2022/12/17 23:17:42;;;;;;;84.43;37.92;;;;;;;-6.14;100.00;102858.41;5054197;28;19958;-86
2022/12/17 23:20:08;;;;;;;84.45;36.92;;;;;;;-6.34;100.00;102832.50;5054155;28;20095;-81
2022/12/17 23:22:33;;;;;;;84.57;40.25;;;;;;;-6.34;100.00;102827.47;5054336;28;20459;-85
2022/12/17 23:24:59;;;;;;;86.60;38.20;;;;;;;-6.47;100.00;102815.25;5053819;28;20025;-84
2022/12/17 23:27:24;;;;;;;78.15;35.95;;;;;;;-6.33;100.00;102859.34;5054027;28;20029;-86
2022/12/17 23:29:49;;;;;;;85.70;36.63;;;;;;;-6.37;100.00;102863.41;5053782;28;20024;-85
2022/12/17 23:32:15;;;;;;;80.90;35.47;;;;;;;-6.42;100.00;102853.97;5053862;28;20021;-83
2022/12/17 23:34:40;;;;;;;80.45;35.17;;;;;;;-6.80;100.00;102798.03;5053869;28;20468;-83
2022/12/17 23:37:05;;;;;;;88.65;37.75;;;;;;;-6.45;100.00;102861.41;5053718;28;20025;-83
2022/12/17 23:39:31;;;;;;;79.65;38.47;;;;;;;-6.55;100.00;102851.78;5053585;28;20033;-83
2022/12/17 23:41:56;;;;;;;88.38;38.85;;;;;;;-6.87;100.00;102802.78;5053976;28;20063;-83
2022/12/17 23:44:21;;;;;;;80.05;38.38;;;;;;;-6.64;100.00;102852.28;5053917;28;20063;-84
2022/12/17 23:46:47;;;;;;;78.18;35.30;;;;;;;-6.66;100.00;102853.88;5053656;28;20465;-86
2022/12/17 23:49:13;;;;;;;81.05;37.63;;;;;;;-6.67;100.00;102848.00;5053795;28;20583;-83
2022/12/17 23:51:38;;;;;;;80.70;36.15;;;;;;;-6.68;100.00;102850.44;5053823;28;20388;-78
2022/12/17 23:54:04;;;;;;;86.00;37.33;;;;;;;-6.81;100.00;102839.03;5052832;28;20029;-84
2022/12/17 23:56:29;;;;;;;78.63;37.17;;;;;;;-6.77;100.00;102867.66;5053428;28;20025;-79
2022/12/17 23:58:57;;;;;;;77.32;36.47;;;;;;;-6.89;100.00;102852.06;5053589;28;20053;-86
